• Join FlightAware (Why Join?)
  • Login
  • US Flag 
09:27AM EDT


 

Airport Tracker/Info


-or-


 

Live Flight TrackerFlight Track Log ✈ EJA922 ✈ 01-Aug-2013 ✈ KAGS - KBFI

Flight Track Log - Related Links

Times and Time Zones

All times are in EDT time to prevent confusion due to time zone crossing. See the EJA922 flight status page for this flight to view local times or setup timezone preferences in your user account.

Time Position Orientation Groundspeed Altitude Reporting Facility
EDT Latitude Longitude Course Direction KTS MPH feet Rate Location/Type
11:01AM 33.2744 -82.0164 284° West 232 267 5,400  Level Atlanta Center
11:02AM 33.2256 -82.0819 228° Southwest 245 282 9,000 2,580 Climbing Atlanta Center
11:03AM 33.2356 -82.1861 277° West 259 298 10,600 2,100 Climbing Atlanta Center
11:04AM 33.2581 -82.3000 283° West 307 353 13,300 2,220 Climbing Atlanta Center
11:05AM 33.2806 -82.4186 283° West 343 395 15,100 1,620 Climbing Atlanta Center
11:06AM 33.4568 -82.8342 284° West  Level FlightAware Approximate
11:06AM 33.3008 -82.5425 281° West 364 419 16,600  Level Atlanta Center
11:07AM 33.3442 -82.6711 292° West 378 435 18,500 1,500 Climbing Atlanta Center
11:08AM 33.3892 -82.7872 295° West 385 443 19,700 1,140 Climbing Atlanta Center
11:09AM 33.4383 -82.9061 296° West 396 456 20,800 960 Climbing Atlanta Center
11:10AM 33.4539 -83.0231 279° West 396 456 21,700 900 Climbing Atlanta Center
11:11AM 33.4656 -83.1572 276° West 404 465 22,600 960 Climbing Atlanta Center
11:12AM 33.4767 -83.2942 276° West 415 478 23,700 1,140 Climbing Atlanta Center
11:13AM 33.4858 -83.4311 275° West 415 478 24,900 1,020 Climbing Atlanta Center
11:14AM 33.4928 -83.5706 273° West 421 484 25,800 900 Climbing Atlanta Center
11:15AM 33.5036 -83.7225 275° West 421 484 26,700 900 Climbing Atlanta Center
11:16AM 33.5144 -83.8694 275° West 426 490 27,700 900 Climbing Atlanta Center
11:17AM 33.5228 -84.0139 274° West 431 496 28,600 780 Climbing Atlanta Center
11:18AM 33.5311 -84.1558 274° West 436 502 29,300 660 Climbing Atlanta Center
11:19AM 33.5394 -84.3056 274° West 446 513 30,000 720 Climbing Atlanta Center
11:20AM 33.5494 -84.4575 275° West 451 519 30,800 900 Climbing Atlanta Center
11:21AM 33.5592 -84.6122 274° West 461 531 31,800 1,080 Climbing Atlanta Center
11:22AM 33.5667 -84.7494 274° West 461 531 33,000 1,200 Climbing Atlanta Center
11:23AM 33.5764 -84.8992 274° West 461 531 34,200 1,500 Climbing Atlanta Center
11:24AM 33.5856 -85.0489 274° West 461 531 36,000 1,620 Climbing Atlanta Center
11:25AM 33.5928 -85.1933 273° West 453 521 37,500 1,260 Climbing Atlanta Center
11:26AM 33.6014 -85.3508 274° West 441 507 38,600 1,080 Climbing Atlanta Center
11:27AM 33.6083 -85.4931 273° West 441 507 39,700 900 Climbing Atlanta Center
11:28AM 33.6189 -85.6403 275° West 441 507 40,500 720 Climbing Atlanta Center
11:29AM 33.6233 -85.7850 272° West 440 506 41,200 720 Climbing Atlanta Center
11:30AM 33.6275 -85.9250 272° West 434 499 42,000 780 Climbing Atlanta Center
11:31AM 33.6339 -86.0522 273° West 434 499 42,800 480 Climbing Atlanta Center
11:32AM 33.6397 -86.1997 273° West 434 499 43,000 60 Climbing Atlanta Center
11:33AM 33.6475 -86.3494 274° West 444 511 43,000  Level Atlanta Center
11:34AM 33.6528 -86.4994 272° West 449 517 43,000  Level Atlanta Center
11:35AM 33.6581 -86.6519 272° West 455 524 43,000  Level Atlanta Center
11:36AM 33.6653 -86.8017 273° West 460 529 43,000  Level Atlanta Center
11:37AM 33.6783 -86.9519 276° West 460 529 43,000  Level Atlanta Center
11:38AM 33.7122 -87.1081 285° West 453 521 43,000  Level Atlanta Center
11:40AM 33.7769 -87.4183 284° West 435 501 43,000  Level Memphis Center
11:41AM 33.8072 -87.5572 285° West 435 501 43,000  Level Memphis Center
11:42AM 33.8272 -87.7117 279° West 447 514 43,000  Level Memphis Center
11:43AM 33.8675 -87.8431 290° West 447 514 43,000  Level Memphis Center
11:44AM 33.9000 -88.0047 284° West 452 520 43,000  Level Memphis Center
11:45AM 33.9317 -88.1467 285° West 444 511 43,000  Level Memphis Center
11:46AM 33.9594 -88.3011 282° West 466 536 43,000  Level Memphis Center
11:47AM 33.9889 -88.4458 284° West 461 531 43,000  Level Memphis Center
11:48AM 34.0181 -88.5903 284° West 456 525 43,000  Level Memphis Center
11:49AM 34.0472 -88.7353 284° West 451 519 43,000  Level Memphis Center
11:50AM 34.0761 -88.8750 284° West 440 506 43,000  Level Memphis Center
11:51AM 34.1028 -89.0225 282° West 445 512 43,000  Level Memphis Center
11:52AM 34.1314 -89.1678 283° West 450 518 43,000  Level Memphis Center
11:53AM 34.1556 -89.3003 282° West 450 518 43,000  Level Memphis Center
11:54AM 34.1819 -89.4458 282° West 450 518 43,000  Level Memphis Center
11:55AM 34.2119 -89.5911 284° West 450 518 43,000  Level Memphis Center
11:56AM 34.2400 -89.7367 283° West 450 518 43,000  Level Memphis Center
11:57AM 34.2700 -89.8997 283° West 450 518 43,000  Level Memphis Center
11:58AM 34.2975 -90.0478 283° West 450 518 43,000  Level Memphis Center
12:00PM 34.3522 -90.3419 283° West 450 518 43,000  Level Memphis Center
12:01PM 34.3792 -90.4906 282° West 450 518 43,000  Level Memphis Center
12:02PM 34.4083 -90.6367 284° West 450 518 43,000  Level Memphis Center
12:03PM 34.4497 -90.7728 290° West 444 511 43,000  Level Memphis Center
12:04PM 34.5117 -90.8789 305° West 435 501 43,000  Level Memphis Center
12:05PM 34.5864 -90.9928 309° West 435 501 43,000  Level Memphis Center
12:06PM 34.6608 -91.1119 307° West 435 501 43,000  Level Memphis Center
12:07PM 34.7331 -91.2289 307° West 435 501 43,000  Level Memphis Center
12:08PM 34.8053 -91.3436 307° West 435 501 43,000  Level Memphis Center
12:09PM 34.8836 -91.4711 307° West 435 501 43,000  Level Memphis Center
12:10PM 34.9472 -91.5731 307° West 435 501 43,000  Level Memphis Center
12:12PM 35.0886 -91.8036 307° West 429 494 43,000  Level Memphis Center
12:13PM 35.1603 -91.9192 307° West 429 494 43,000  Level Memphis Center
12:14PM 35.2297 -92.0322 307° West 429 494 43,000  Level Memphis Center
12:15PM 35.3011 -92.1481 307° West 429 494 43,000  Level Memphis Center
12:16PM 35.3706 -92.2617 307° West 429 494 43,000  Level Memphis Center
12:17PM 35.4417 -92.3781 307° West 429 494 43,000  Level Memphis Center
12:18PM 35.5128 -92.4969 306° West 429 494 43,000  Level Memphis Center
12:19PM 35.5917 -92.6242 307° West 429 494 43,000  Level Memphis Center
12:20PM 35.6625 -92.7486 305° West 429 494 43,000  Level Memphis Center
12:21PM 35.7333 -92.8608 308° West 435 501 43,000  Level Memphis Center
12:22PM 35.8039 -92.9781 307° West 435 501 43,000  Level Memphis Center
12:23PM 35.8719 -93.1006 304° West 435 501 43,000  Level Memphis Center
12:24PM 35.9425 -93.2183 307° West 430 495 43,000  Level Memphis Center
12:25PM 36.0125 -93.3361 306° West 430 495 43,000  Level Memphis Center
12:26PM 36.0786 -93.4542 305° West 430 495 43,000  Level Memphis Center
12:27PM 36.1486 -93.5725 306° West 430 495 43,000  Level Memphis Center
12:28PM 36.2183 -93.6936 306° West 430 495 43,000  Level Memphis Center
12:29PM 36.2758 -93.7989 304° West 430 495 43,000  Level Memphis Center
12:31PM 36.4344 -94.0597 307° West 424 488 43,000  Level Kansas City Center
12:32PM 36.5022 -94.1783 305° West 422 486 43,100 120 Climbing Kansas City Center
12:33PM 36.5694 -94.2983 305° West 422 486 43,300 240 Climbing Kansas City Center
12:34PM 36.6381 -94.4156 306° West 421 484 43,600 240 Climbing Kansas City Center
12:35PM 36.7042 -94.5317 305° West 415 478 43,800 240 Climbing Kansas City Center
12:36PM 36.7717 -94.6492 306° West 416 479 44,100 300 Climbing Kansas City Center
12:37PM 36.8497 -94.7903 305° West 414 476 44,500 240 Climbing Kansas City Center
12:38PM 36.9156 -94.9075 305° West 414 476 44,700 240 Climbing Kansas City Center
12:39PM 36.9811 -95.0239 305° West 412 474 45,000 120 Climbing Kansas City Center
12:40PM 37.0464 -95.1411 305° West 413 475 45,000  Level Kansas City Center
12:42PM 37.1122 -95.2586 305° West 413 475 45,000  Level Kansas City Center
12:43PM 37.1914 -95.4019 305° West 417 480 45,000  Level Kansas City Center
12:44PM 37.2572 -95.5250 304° West 422 486 45,000  Level Kansas City Center
12:45PM 37.3231 -95.6442 305° West 417 480 45,000  Level Kansas City Center
12:46PM 37.3889 -95.7644 305° West 418 481 45,000  Level Kansas City Center
12:47PM 37.4542 -95.8853 304° West 418 481 45,000  Level Kansas City Center
12:48PM 37.5203 -96.0072 304° West 420 483 45,000  Level Kansas City Center
12:49PM 37.5994 -96.1522 305° West 420 483 45,000  Level Kansas City Center
12:50PM 37.6608 -96.2664 304° West 421 484 45,000  Level Kansas City Center
12:51PM 37.7286 -96.3878 305° West 422 486 45,000  Level Kansas City Center
12:52PM 37.7942 -96.5108 304° West 423 487 45,000  Level Kansas City Center
12:53PM 37.8592 -96.6328 304° West 420 483 45,000  Level Kansas City Center
12:54PM 37.9375 -96.7803 304° West 420 483 45,000  Level Kansas City Center
12:55PM 38.0031 -96.9025 304° West 421 484 45,000  Level Kansas City Center
12:56PM 38.0678 -97.0253 304° West 420 483 45,000  Level Kansas City Center
12:57PM 38.1328 -97.1489 304° West 421 484 45,000  Level Kansas City Center
12:58PM 38.1978 -97.2725 304° West 423 487 45,000  Level Kansas City Center
12:59PM 38.2761 -97.4217 304° West 425 489 45,000  Level Kansas City Center
01:00PM 38.3408 -97.5467 303° West 426 490 45,000  Level Kansas City Center
01:01PM 38.4053 -97.6722 303° West 427 491 45,000  Level Kansas City Center
01:02PM 38.4703 -97.7969 304° West 425 489 45,000  Level Kansas City Center
01:03PM 38.5344 -97.9228 303° West 425 489 45,000  Level Kansas City Center
01:04PM 38.5989 -98.0486 303° West 425 489 45,000  Level Kansas City Center
01:05PM 38.6764 -98.1994 303° West 425 489 45,000  Level Kansas City Center
01:06PM 38.7403 -98.3264 303° West 426 490 45,000  Level Kansas City Center
01:07PM 38.8039 -98.4517 303° West 422 486 45,000  Level Kansas City Center
01:08PM 38.8667 -98.5781 303° West 421 484 45,000  Level Kansas City Center
01:09PM 38.9311 -98.7050 303° West 424 488 45,000  Level Kansas City Center
01:10PM 38.9944 -98.8331 302° West 425 489 45,000  Level Kansas City Center
01:12PM 39.0706 -98.9869 303° West 427 491 45,000  Level Kansas City Center
01:13PM 39.1347 -99.1150 303° West 426 490 45,000  Level Kansas City Center
01:14PM 39.1978 -99.2453 302° West 428 493 45,000  Level Kansas City Center
01:15PM 39.2592 -99.3764 301° West 429 494 45,000  Level Kansas City Center
01:16PM 39.3236 -99.5039 303° West 425 489 45,000  Level Kansas City Center
01:17PM 39.3919 -99.6456 302° West 427 491 45,000  Level Kansas City Center
01:18PM 39.4569 -99.7800 302° West 428 493 45,000  Level Kansas City Center
01:19PM 39.5492 -99.9706 302° West 426 490 45,000  Level Denver Center
01:20PM 39.6297 -100.1372 302° West 427 491 45,000  Level Denver Center
01:21PM 39.6992 -100.2833 302° West 425 489 45,000  Level Denver Center
01:22PM 39.7581 -100.4075 302° West 423 487 45,000  Level Denver Center
01:24PM 39.8172 -100.5331 302° West 424 488 45,000  Level Denver Center
01:25PM 39.8869 -100.6808 302° West 427 491 45,000  Level Denver Center
01:26PM 39.9650 -100.8475 301° West 422 486 45,000  Level Denver Center
01:27PM 40.0236 -100.9736 301° West 421 484 45,000  Level Denver Center
01:28PM 40.0911 -101.1203 301° West 420 483 45,000  Level Denver Center
01:29PM 40.1497 -101.2461 301° West 422 486 45,000  Level Denver Center
01:30PM 40.2086 -101.3744 301° West 426 490 45,000  Level Denver Center
01:31PM 40.2775 -101.5244 301° West 429 494 45,000  Level Denver Center
01:32PM 40.3358 -101.6522 301° West 427 491 45,000  Level Denver Center
01:33PM 40.4031 -101.8014 301° West 426 490 45,000  Level Denver Center
01:34PM 40.4611 -101.9289 301° West 424 488 45,000  Level Denver Center
01:35PM 40.5381 -102.1019 300° West 427 491 45,000  Level Denver Center
01:36PM 40.5964 -102.2306 301° West 426 490 45,000  Level Denver Center
01:37PM 40.6639 -102.3800 301° West 426 490 45,000  Level Denver Center
01:38PM 40.7200 -102.5100 300° West 426 490 45,000  Level Denver Center
01:39PM 40.7867 -102.6594 301° West 423 487 45,000  Level Denver Center
01:40PM 40.8425 -102.7878 300° West 421 484 45,000  Level Denver Center
01:42PM 40.9094 -102.9381 301° West 422 486 45,000  Level Denver Center
01:43PM 40.9681 -103.0731 300° West 428 493 45,000  Level Denver Center
01:44PM 41.0275 -103.2094 300° West 426 490 45,000  Level Denver Center
01:45PM 41.0931 -103.3617 300° West 426 490 45,000  Level Denver Center
01:46PM 41.1489 -103.4919 300° West 424 488 45,000  Level Denver Center
01:47PM 41.2136 -103.6431 300° West 422 486 45,000  Level Denver Center
01:48PM 41.2694 -103.7756 299° West 428 493 45,000  Level Denver Center
01:49PM 41.3342 -103.9292 299° West 427 491 45,000  Level Denver Center
01:50PM 41.3900 -104.0614 299° West 426 490 45,000  Level Denver Center
01:51PM 41.4458 -104.1933 299° West 425 489 45,000 60 Level Denver Center
01:52PM 41.5094 -104.3475 299° West 424 488 45,200 180 Climbing Denver Center
01:53PM 41.5653 -104.4786 300° West 423 487 45,400 240 Climbing Denver Center
01:54PM 41.6281 -104.6328 299° West 422 486 45,700 240 Climbing Denver Center
01:55PM 41.6825 -104.7633 299° West 419 482 46,000 240 Climbing Denver Center
01:56PM 41.7453 -104.9175 299° West 420 483 46,300 240 Climbing Denver Center
01:57PM 41.7997 -105.0514 299° West 425 489 46,600 240 Climbing Denver Center
01:58PM 41.8619 -105.2069 298° West 424 488 46,900 120 Climbing Denver Center
01:59PM 41.9253 -105.3633 299° West 425 489 47,000  Climbing Denver Center
02:00PM 41.9903 -105.5225 299° West 431 496 47,000  Level Denver Center
02:01PM 42.0447 -105.6578 298° West 432 497 47,000  Level Denver Center
02:02PM 42.1067 -105.8175 298° West 429 494 47,000  Level Denver Center
02:03PM 42.1617 -105.9553 298° West 433 498 47,000  Level Denver Center
02:04PM 42.2264 -106.1178 298° West 441 507 47,000  Level Denver Center
02:06PM 42.2808 -106.2575 298° West 441 507 47,000  Level Denver Center
02:08PM 42.4181 -106.6125 298° West 446 513 47,000  Level Salt Lake Center
02:09PM 42.4644 -106.7286 298° West 443 510 47,000  Level Denver Center
02:11PM 42.5806 -107.0333 297° West 447 514 47,000  Level Denver Center
02:12PM 42.6375 -107.1817 298° West 446 513 47,000  Level Denver Center
02:13PM 42.6981 -107.3436 297° West 448 516 47,000  Level Denver Center
02:14PM 42.7422 -107.4622 297° West 444 511 47,000  Level Denver Center
02:15PM 42.8139 -107.6542 297° West 447 514 47,000  Level Denver Center
02:16PM 42.8683 -107.7989 297° West 449 517 47,000  Level Denver Center
02:17PM 42.9383 -107.9914 296° West 445 512 47,000  Level Salt Lake Center
02:18PM 42.9972 -108.1572 296° West 444 511 47,000  Level Salt Lake Center
02:19PM 43.0525 -108.3056 297° West 440 506 47,000  Level Salt Lake Center
02:20PM 43.1067 -108.4572 296° West 443 510 47,000  Level Salt Lake Center
02:22PM 43.1742 -108.6402 297° West  Level FlightAware Approximate
02:22PM 43.2144 -108.7581 297° West 440 506 47,000  Level Salt Lake Center
02:23PM 43.2689 -108.9081 297° West 440 506 47,000  Level Salt Lake Center
02:24PM 43.3333 -109.0903 296° West 442 509 47,000  Level Salt Lake Center
02:25PM 43.3867 -109.2431 296° West 444 511 47,000  Level Salt Lake Center
02:26PM 43.4403 -109.3961 296° West 445 512 47,000  Level Salt Lake Center
02:27PM 43.4942 -109.5483 296° West 442 509 47,000  Level Salt Lake Center
02:29PM 43.5494 -109.7081 296° West 445 512 47,000  Level Salt Lake Center
02:30PM 43.6103 -109.8789 296° West 444 511 47,000  Level Salt Lake Center
02:31PM 43.6603 -110.0297 295° West 450 518 47,000  Level Salt Lake Center
02:32PM 43.7208 -110.2067 295° West 455 524 47,000  Level Salt Lake Center
02:33PM 43.7719 -110.3558 295° West 451 519 47,000  Level Salt Lake Center
02:34PM 43.8311 -110.5319 295° West 451 519 47,000  Level Salt Lake Center
02:35PM 43.8825 -110.6847 295° West 454 522 47,000  Level Salt Lake Center
02:36PM 43.9314 -110.8383 294° West 455 524 47,000  Level Salt Lake Center
02:37PM 43.9900 -111.0150 295° West 450 518 47,000  Level Salt Lake Center
02:38PM 44.0397 -111.1692 294° West 454 522 47,000  Level Salt Lake Center
02:39PM 44.0994 -111.3492 295° West 457 526 47,000  Level Salt Lake Center
02:40PM 44.1494 -111.5053 294° West 458 527 47,000  Level Salt Lake Center
02:41PM 44.2075 -111.6875 294° West 457 526 47,000  Level Salt Lake Center
02:42PM 44.2581 -111.8444 294° West 458 527 47,000  Level Salt Lake Center
02:43PM 44.3083 -112.0025 294° West 461 531 47,000  Level Salt Lake Center
02:44PM 44.3661 -112.1872 294° West 463 533 47,000  Level Salt Lake Center
02:45PM 44.4169 -112.3469 294° West 467 537 47,000  Level Salt Lake Center
02:46PM 44.4758 -112.5339 294° West 469 540 47,000  Level Salt Lake Center
02:47PM 44.5253 -112.6953 293° West 470 541 47,000  Level Salt Lake Center
02:48PM 44.5822 -112.8814 293° West 466 536 47,000  Level Salt Lake Center
02:49PM 44.6314 -113.0408 293° West 466 536 47,000  Level Salt Lake Center
02:50PM 44.6875 -113.2292 293° West 468 539 47,000  Level Salt Lake Center
02:51PM 44.7369 -113.3911 293° West 470 541 47,000  Level Salt Lake Center
02:52PM 44.7922 -113.5808 292° West 471 542 47,000  Level Salt Lake Center
02:53PM 44.8433 -113.7436 294° West 473 544 47,000  Level Salt Lake Center
02:54PM 44.8536 -113.9131 275° West 465 535 47,000  Level Salt Lake Center
02:55PM 44.8175 -114.1197 256° West 462 532 47,000  Level Salt Lake Center
02:56PM 44.7881 -114.2867 256° West 462 532 47,000  Level Salt Lake Center
02:57PM 44.7600 -114.4539 257° West 459 528 47,000  Level Salt Lake Center
02:59PM 44.7247 -114.6492 256° West 461 531 47,000  Level Salt Lake Center
03:00PM 44.7100 -114.8183 263° West 460 529 47,000  Level Salt Lake Center
03:01PM 44.7750 -115.0014 297° West 469 540 47,000  Level Salt Lake Center
03:02PM 44.8331 -115.1589 298° West 473 544 47,000  Level Salt Lake Center
03:03PM 44.8997 -115.3419 297° West 473 544 47,000  Level Salt Lake Center
03:04PM 44.9558 -115.4997 297° West 472 543 47,000  Level Salt Lake Center
03:05PM 45.0206 -115.6817 297° West 468 539 47,000  Level Salt Lake Center
03:06PM 45.0753 -115.8375 296° West 466 536 47,000  Level Salt Lake Center
03:08PM 45.2047 -116.2053 297° West 465 535 47,000  Level Seattle Center
03:09PM 45.2589 -116.3628 296° West 466 536 47,000  Level Seattle Center
03:10PM 45.3225 -116.5464 296° West 466 536 47,000  Level Seattle Center
03:11PM 45.3769 -116.7061 296° West 469 540 47,000  Level Seattle Center
03:12PM 45.4300 -116.8639 296° West 466 536 47,000  Level Seattle Center
03:13PM 45.4961 -117.0464 297° West 465 535 47,000  Level Seattle Center
03:14PM 45.5531 -117.2036 297° West 467 537 47,000  Level Seattle Center
03:15PM 45.6206 -117.3892 298° West 471 542 47,000  Level Seattle Center
03:16PM 45.6689 -117.5297 296° West 472 543 47,000  Level Seattle Center
03:17PM 45.7306 -117.6961 298° West 472 543 47,000  Level Seattle Center
03:18PM 45.8011 -117.9006 296° West 476 548 47,000  Level Seattle Center
03:19PM 45.8600 -118.0706 296° West 476 548 47,000 -60 Level Seattle Center
03:20PM 45.9197 -118.2400 297° West 475 547 46,900  Descending Seattle Center
03:21PM 45.9775 -118.4097 296° West 475 547 47,000  Climbing Seattle Center
03:22PM 46.0336 -118.5742 296° West 473 544 47,000  Level Seattle Center
03:23PM 46.0917 -118.7444 296° West 476 548 47,000  Level Seattle Center
03:24PM 46.1497 -118.9133 296° West 473 544 47,000  Level Seattle Center
03:25PM 46.2175 -119.1178 296° West 474 545 47,000  Level Seattle Center
03:26PM 46.2736 -119.2872 296° West 472 543 47,000  Level Seattle Center
03:27PM 46.3311 -119.4594 296° West 474 545 47,000  Level Seattle Center
03:28PM 46.3867 -119.6308 295° West 475 547 47,000 -960 Level Seattle Center
03:29PM 46.4442 -119.8053 296° West 480 552 45,100 -2,340 Descending Seattle Center
03:30PM 46.5061 -119.9972 295° West 522 601 42,300 -2,640 Descending Seattle Center
03:31PM 46.5664 -120.1844 295° West 517 595 39,800 -2,760 Descending Seattle Center
03:32PM 46.6308 -120.3833 295° West 510 587 36,700 -2,940 Descending Seattle Center
03:33PM 46.6953 -120.5897 295° West 503 579 33,800 -2,760 Descending Seattle Center
03:34PM 46.7539 -120.7756 295° West 507 583 31,100 -2,640 Descending Seattle Center
03:36PM 46.8144 -120.9631 295° West 512 589 28,400 -2,640 Descending Seattle Center
03:37PM 46.8911 -121.1336 303° West 506 582 25,800 -2,580 Descending Seattle Center
03:38PM 46.9681 -121.2911 306° West 483 556 23,200 -2,520 Descending Seattle Center
03:39PM 47.0419 -121.4492 304° West 438 504 20,700 -2,340 Descending Seattle Center
03:39PM 47.0947 -121.5611 305° West 349 402 18,900 -1,980 Descending Seattle Center
03:41PM 47.1528 -121.6886 304° West 335 386 16,900 -1,860 Descending Seattle Center
03:42PM 47.2128 -121.8203 304° West 341 392 14,900 -1,560 Descending Seattle Center
03:43PM 47.2603 -121.9228 304° West 335 386 13,800 -1,380 Descending Seattle Center
03:44PM 47.3108 -122.0322 304° West 317 365 12,300 -1,500 Descending Seattle Center
03:45PM 47.3594 -122.1417 303° West 300 345 10,600 -1,500 Descending Seattle Center
03:46PM 47.4383 -122.1742 344° North 287 330 9,100 -1,620 Descending Seattle Center
03:47PM 47.5139 -122.1756 359° North 276 318 7,400 -1,680 Descending Seattle Center
03:48PM 47.5928 -122.1775 359° North 265 305 5,700 -1,800 Descending Seattle Center
03:49PM 47.6711 -122.1797 359° North 262 302 3,600 -1,320 Descending Seattle Center
03:50PM 47.7431 -122.2089 345° North 261 300 3,000 -420 Descending Seattle Center
03:51PM 47.7650 -122.2786 295° West 234 269 2,800 -420 Descending Seattle Center
03:52PM 47.7667 -122.3694 272° West 204 235 2,200 -300 Descending Seattle Center
03:53PM 47.7483 -122.4453 250° West 200 230 2,200  Level Seattle Center
03:54PM 47.7014 -122.4494 183° South 203 234 2,200  Level Seattle Center
03:55PM 47.6486 -122.4039 150° Southeast 198 228 2,200 -300 Level Seattle Center
03:56PM 47.6094 -122.3703 150° Southeast 162 186 1,600 -720 Descending Seattle Center
03:57PM 47.5797 -122.3456 151° Southeast 126 145 900 -720 Descending Seattle Center
03:58PM 47.5456 -122.3161 150° Southeast 131 151 200 -420 Descending Seattle Center
03:59PM 47.5167 -122.2914 150° Southeast 130 150 100 -120 Descending Seattle Center